createdAt,value
2019-03-29T00:00:01.752Z,37.30
2019-03-29T00:01:01.739Z,39.00
2019-03-29T00:02:01.730Z,38.30
2019-03-29T00:03:01.723Z,38.60
2019-03-29T00:04:01.714Z,38.50
2019-03-29T00:05:01.706Z,37.70
2019-03-29T00:06:01.694Z,38.80
2019-03-29T00:07:01.684Z,38.30
2019-03-29T00:08:01.671Z,39.00
2019-03-29T00:09:02.084Z,37.70
2019-03-29T00:10:01.653Z,37.90
2019-03-29T00:11:01.645Z,37.60
2019-03-29T00:12:01.629Z,37.90
2019-03-29T00:13:01.621Z,37.20
2019-03-29T00:14:01.614Z,38.30
2019-03-29T00:15:01.611Z,38.10
2019-03-29T00:16:01.597Z,37.70
2019-03-29T00:17:01.589Z,36.80
2019-03-29T00:18:01.577Z,37.80
2019-03-29T00:19:02.047Z,38.30
2019-03-29T00:20:01.556Z,37.60
2019-03-29T00:21:01.545Z,38.90
2019-03-29T00:22:01.537Z,38.50
2019-03-29T00:23:01.526Z,37.10
2019-03-29T00:24:07.068Z,39.60
2019-03-29T00:25:01.511Z,38.10
2019-03-29T00:26:01.496Z,39.80
2019-03-29T00:27:01.487Z,38.60
2019-03-29T00:28:01.483Z,38.70
2019-03-29T00:29:01.476Z,39.10
2019-03-29T00:30:01.461Z,38.50
2019-03-29T00:31:01.450Z,38.20
2019-03-29T00:32:01.438Z,37.80
2019-03-29T00:33:01.426Z,36.70
2019-03-29T00:34:01.418Z,37.40
2019-03-29T00:35:01.407Z,37.40
2019-03-29T00:36:01.410Z,36.50
2019-03-29T00:37:01.391Z,38.60
2019-03-29T00:38:01.384Z,37.40
2019-03-29T00:39:01.382Z,37.90
2019-03-29T00:40:01.361Z,37.40
2019-03-29T00:41:01.350Z,36.80
2019-03-29T00:42:01.345Z,37.50
2019-03-29T00:43:01.334Z,36.60
2019-03-29T00:44:01.349Z,38.50
2019-03-29T00:45:01.311Z,36.00
2019-03-29T00:46:01.298Z,36.40
2019-03-29T00:47:01.289Z,36.80
2019-03-29T00:48:01.282Z,37.50
2019-03-29T00:49:01.273Z,37.00
2019-03-29T00:50:01.266Z,37.40
2019-03-29T00:51:01.254Z,37.00
2019-03-29T00:52:01.239Z,37.10
2019-03-29T00:53:01.228Z,37.50
2019-03-29T00:54:01.944Z,37.00
2019-03-29T00:55:01.212Z,36.90
2019-03-29T00:56:01.303Z,37.60
2019-03-29T00:57:01.250Z,38.20
2019-03-29T00:58:01.184Z,37.00
2019-03-29T00:59:01.172Z,37.80
2019-03-29T01:00:01.168Z,37.00
2019-03-29T01:01:01.174Z,38.20
2019-03-29T01:02:01.146Z,37.20
2019-03-29T01:03:01.135Z,38.00
2019-03-29T01:04:01.120Z,36.40
2019-03-29T01:05:01.113Z,35.70
2019-03-29T01:06:01.101Z,37.60
2019-03-29T01:07:01.091Z,36.50
2019-03-29T01:08:07.729Z,37.90
2019-03-29T01:09:01.075Z,37.00
2019-03-29T01:10:01.070Z,37.30
2019-03-29T01:11:01.056Z,37.10
2019-03-29T01:12:01.045Z,36.30
2019-03-29T01:13:01.031Z,37.10
2019-03-29T01:14:01.028Z,38.30
2019-03-29T01:15:01.016Z,36.20
2019-03-29T01:16:01.179Z,37.10
2019-03-29T01:17:00.994Z,37.30
2019-03-29T01:18:00.983Z,37.90
2019-03-29T01:19:00.968Z,38.10
2019-03-29T01:20:00.964Z,37.30
2019-03-29T01:21:01.023Z,37.70
2019-03-29T01:22:00.948Z,35.70
2019-03-29T01:23:00.936Z,37.60
2019-03-29T01:24:00.921Z,37.70
2019-03-29T01:25:00.914Z,36.50
2019-03-29T01:26:01.121Z,36.30
2019-03-29T01:27:00.887Z,37.50
2019-03-29T01:28:00.887Z,35.20
2019-03-29T01:29:00.875Z,36.30
2019-03-29T01:30:00.859Z,35.60
2019-03-29T01:31:00.849Z,36.40
2019-03-29T01:32:00.842Z,34.10
2019-03-29T01:33:00.833Z,34.80
2019-03-29T01:34:00.833Z,34.00
2019-03-29T01:35:00.816Z,36.40
2019-03-29T01:36:01.296Z,35.50
2019-03-29T01:37:00.791Z,35.40
2019-03-29T01:38:00.781Z,36.00
2019-03-29T01:39:00.768Z,35.00
2019-03-29T01:40:00.764Z,33.70
2019-03-29T01:41:01.118Z,34.80
2019-03-29T01:42:00.741Z,34.60
2019-03-29T01:43:00.731Z,35.10
2019-03-29T01:44:01.876Z,34.10
2019-03-29T01:45:00.707Z,33.60
2019-03-29T01:46:00.700Z,35.20
2019-03-29T01:47:00.689Z,34.20
2019-03-29T01:48:00.675Z,34.10
2019-03-29T01:49:00.665Z,33.60
2019-03-29T01:50:00.658Z,34.00
2019-03-29T01:51:01.299Z,33.70
2019-03-29T01:52:00.640Z,34.80
2019-03-29T01:53:00.632Z,33.30
2019-03-29T01:54:00.621Z,33.90
2019-03-29T01:55:00.610Z,33.90
2019-03-29T01:56:00.596Z,33.40
2019-03-29T01:57:00.586Z,33.80
2019-03-29T01:58:00.574Z,33.20
2019-03-29T01:59:00.563Z,31.80
2019-03-29T02:00:00.559Z,33.20
2019-03-29T02:01:00.548Z,32.90
2019-03-29T02:02:00.535Z,32.30
2019-03-29T02:03:00.523Z,33.90
2019-03-29T02:04:00.518Z,33.50
2019-03-29T02:05:01.171Z,35.80
2019-03-29T02:06:00.497Z,33.60
2019-03-29T02:07:00.489Z,33.70
2019-03-29T02:08:00.475Z,31.50
2019-03-29T02:09:00.466Z,31.40
2019-03-29T02:10:00.452Z,32.40
2019-03-29T02:11:00.442Z,31.30
2019-03-29T02:12:00.439Z,30.60
2019-03-29T02:13:00.426Z,31.20
2019-03-29T02:14:00.415Z,30.60
2019-03-29T02:15:00.403Z,29.00
2019-03-29T02:16:00.389Z,29.80
2019-03-29T02:17:00.378Z,29.50
2019-03-29T02:18:00.374Z,27.90
2019-03-29T02:19:00.363Z,28.70
2019-03-29T02:20:00.346Z,28.10
2019-03-29T02:21:00.338Z,29.40
2019-03-29T02:22:00.331Z,30.20
2019-03-29T02:23:00.319Z,25.80
2019-03-29T02:24:00.317Z,27.90
2019-03-29T02:25:00.442Z,29.30
2019-03-29T02:26:00.291Z,29.80
2019-03-29T02:27:00.980Z,28.80
2019-03-29T02:28:00.264Z,27.90
2019-03-29T02:29:00.254Z,28.60
2019-03-29T02:30:00.561Z,28.50
2019-03-29T02:31:00.236Z,29.00
2019-03-29T02:32:00.232Z,29.20
2019-03-29T02:33:00.224Z,27.50
2019-03-29T02:34:00.212Z,28.60
2019-03-29T02:35:00.474Z,26.50
2019-03-29T02:36:00.198Z,26.90
2019-03-29T02:37:01.940Z,26.80
2019-03-29T02:38:00.185Z,27.60
2019-03-29T02:39:00.157Z,27.80
2019-03-29T02:40:00.632Z,25.60
2019-03-29T02:41:00.136Z,27.00
2019-03-29T02:42:00.123Z,27.90
2019-03-29T02:43:00.117Z,27.40
2019-03-29T02:44:00.105Z,26.70
2019-03-29T02:45:00.455Z,26.60
2019-03-29T02:46:00.090Z,27.20
2019-03-29T02:47:00.080Z,27.00
2019-03-29T02:48:00.065Z,26.80
2019-03-29T02:49:00.055Z,26.10
2019-03-29T02:50:00.052Z,27.00
2019-03-29T02:51:00.037Z,26.00
2019-03-29T02:52:00.024Z,27.00
2019-03-29T02:53:00.015Z,26.50
2019-03-29T02:54:00.001Z,25.60
2019-03-29T02:54:59.989Z,26.40
2019-03-29T02:55:59.985Z,25.80
2019-03-29T02:56:59.974Z,26.70
2019-03-29T02:57:59.964Z,24.80
2019-03-29T02:58:59.956Z,26.20
2019-03-29T02:59:59.941Z,26.40
2019-03-29T03:00:59.941Z,26.20
2019-03-29T03:01:59.923Z,25.60
2019-03-29T03:02:59.910Z,26.00
2019-03-29T03:03:59.907Z,26.50
2019-03-29T03:04:59.896Z,25.30
2019-03-29T03:05:59.883Z,24.30
2019-03-29T03:06:59.873Z,26.30
2019-03-29T03:07:59.868Z,25.50
2019-03-29T03:09:13.110Z,26.40
2019-03-29T03:09:59.844Z,25.20
2019-03-29T03:10:59.836Z,26.20
2019-03-29T03:11:59.830Z,26.10
2019-03-29T03:12:59.809Z,25.40
2019-03-29T03:13:59.801Z,25.00
2019-03-29T03:14:59.787Z,24.20
2019-03-29T03:15:59.784Z,24.50
2019-03-29T03:16:59.773Z,24.20
2019-03-29T03:17:59.765Z,25.60
2019-03-29T03:18:59.761Z,25.30
2019-03-29T03:19:59.740Z,25.40
2019-03-29T03:20:59.733Z,25.70
2019-03-29T03:21:59.728Z,25.20
2019-03-29T03:22:59.714Z,24.40
2019-03-29T03:23:59.700Z,25.40
2019-03-29T03:24:59.697Z,25.20
2019-03-29T03:25:59.677Z,25.30
2019-03-29T03:26:59.667Z,26.10
2019-03-29T03:27:59.662Z,24.50
2019-03-29T03:28:59.652Z,24.50
2019-03-29T03:29:59.649Z,24.70
2019-03-29T03:30:59.633Z,26.80
2019-03-29T03:31:59.620Z,28.80
2019-03-29T03:32:59.609Z,30.40
2019-03-29T03:33:59.599Z,36.30
2019-03-29T03:34:59.585Z,36.90
2019-03-29T03:35:59.579Z,34.10
2019-03-29T03:36:59.570Z,41.30
2019-03-29T03:37:59.556Z,38.20
2019-03-29T03:38:59.545Z,42.80
2019-03-29T03:39:59.551Z,45.40
2019-03-29T03:40:59.545Z,42.30
2019-03-29T03:41:59.709Z,41.40
2019-03-29T03:42:59.515Z,46.10
2019-03-29T03:43:59.496Z,44.10
2019-03-29T03:44:59.486Z,44.80
2019-03-29T03:45:59.474Z,41.70
2019-03-29T03:46:59.481Z,41.10
2019-03-29T03:47:59.457Z,39.30
2019-03-29T03:48:59.459Z,42.20
2019-03-29T03:50:01.148Z,38.30
2019-03-29T03:50:59.424Z,36.70
2019-03-29T03:51:59.409Z,34.00
2019-03-29T03:52:59.399Z,33.70
2019-03-29T03:53:59.405Z,31.80
2019-03-29T03:54:59.390Z,30.90
2019-03-29T03:55:59.369Z,31.70
2019-03-29T03:56:59.359Z,32.50
2019-03-29T03:57:59.352Z,33.30
2019-03-29T03:58:59.341Z,30.80
2019-03-29T03:59:59.345Z,33.80
2019-03-29T04:00:59.353Z,34.90
2019-03-29T04:01:59.313Z,33.60
2019-03-29T04:02:59.308Z,33.50
2019-03-29T04:03:59.289Z,33.60
2019-03-29T04:04:59.284Z,36.10
2019-03-29T04:05:59.267Z,34.60
2019-03-29T04:06:59.254Z,31.90
2019-03-29T04:07:59.251Z,31.00
2019-03-29T04:08:59.237Z,31.70
2019-03-29T04:09:59.225Z,29.80
2019-03-29T04:10:59.216Z,32.40
2019-03-29T04:11:59.208Z,30.80
2019-03-29T04:12:59.202Z,30.90
2019-03-29T04:13:59.192Z,30.50
2019-03-29T04:14:59.180Z,29.60
2019-03-29T04:15:59.167Z,31.80
2019-03-29T04:16:59.159Z,31.30
2019-03-29T04:17:59.146Z,33.40
2019-03-29T04:18:59.134Z,35.80
2019-03-29T04:19:59.130Z,33.20
2019-03-29T04:20:59.116Z,34.90
2019-03-29T04:21:59.104Z,34.50
2019-03-29T04:22:59.100Z,34.00
2019-03-29T04:23:59.078Z,35.30
2019-03-29T04:24:59.069Z,33.90
2019-03-29T04:25:59.063Z,35.60
2019-03-29T04:26:59.053Z,35.40
2019-03-29T04:27:59.035Z,35.80
2019-03-29T04:29:04.902Z,36.20
2019-03-29T04:29:59.017Z,38.30
2019-03-29T04:30:59.010Z,38.40
2019-03-29T04:31:59.008Z,36.30
2019-03-29T04:32:59.157Z,40.90
2019-03-29T04:33:58.982Z,37.70
2019-03-29T04:34:58.970Z,36.60
2019-03-29T04:35:58.959Z,36.30
2019-03-29T04:36:58.943Z,36.30
2019-03-29T04:37:58.932Z,37.20
2019-03-29T04:38:58.921Z,34.70
2019-03-29T04:40:07.158Z,40.50
2019-03-29T04:40:58.904Z,34.50
2019-03-29T04:41:58.894Z,36.30
2019-03-29T04:42:58.877Z,35.40
2019-03-29T04:43:58.872Z,35.10
2019-03-29T04:44:59.978Z,34.20
2019-03-29T04:45:58.852Z,34.10
2019-03-29T04:46:58.842Z,36.70
2019-03-29T04:47:58.828Z,36.60
2019-03-29T04:48:58.819Z,38.00
2019-03-29T04:49:58.815Z,39.20
2019-03-29T04:50:58.797Z,39.20
2019-03-29T04:51:58.788Z,41.00
2019-03-29T04:52:58.779Z,41.50
2019-03-29T04:53:58.766Z,40.40
2019-03-29T04:54:58.754Z,42.60
2019-03-29T04:55:58.741Z,42.70
2019-03-29T04:56:58.728Z,45.40
2019-03-29T04:57:58.809Z,43.90
2019-03-29T04:58:58.712Z,46.10
2019-03-29T04:59:58.699Z,46.90
2019-03-29T05:00:58.688Z,42.80
2019-03-29T05:01:58.681Z,42.40
2019-03-29T05:02:58.676Z,47.60
2019-03-29T05:03:58.661Z,44.00
2019-03-29T05:04:58.652Z,41.40
2019-03-29T05:05:58.641Z,43.20
2019-03-29T05:06:58.630Z,50.00
2019-03-29T05:07:58.617Z,43.30
2019-03-29T05:08:58.604Z,44.70
2019-03-29T05:09:58.590Z,43.40
2019-03-29T05:10:58.579Z,46.90
2019-03-29T05:11:58.575Z,45.10
2019-03-29T05:12:59.723Z,44.30
2019-03-29T05:13:58.549Z,43.00
2019-03-29T05:14:58.540Z,41.60
2019-03-29T05:15:58.532Z,42.50
2019-03-29T05:16:58.524Z,43.60
2019-03-29T05:17:58.513Z,40.60
2019-03-29T05:18:58.500Z,41.40
2019-03-29T05:19:58.486Z,41.70
2019-03-29T05:20:58.475Z,42.40
2019-03-29T05:21:58.465Z,41.70
2019-03-29T05:22:58.454Z,42.70
2019-03-29T05:23:58.447Z,42.50
2019-03-29T05:24:58.437Z,43.40
2019-03-29T05:25:58.425Z,45.10
2019-03-29T05:26:58.413Z,44.30
2019-03-29T05:27:58.397Z,44.30
2019-03-29T05:28:58.388Z,43.20
2019-03-29T05:29:58.383Z,45.30
2019-03-29T05:30:58.369Z,46.60
2019-03-29T05:31:58.357Z,45.10
2019-03-29T05:32:58.347Z,45.70
2019-03-29T05:33:58.337Z,46.70
2019-03-29T05:34:58.327Z,46.50
2019-03-29T05:35:58.318Z,46.40
2019-03-29T05:36:58.659Z,45.80
2019-03-29T05:37:58.297Z,45.30
2019-03-29T05:38:58.286Z,44.30
2019-03-29T05:39:58.285Z,45.50
2019-03-29T05:40:58.259Z,46.10
2019-03-29T05:41:58.252Z,45.70
2019-03-29T05:42:58.243Z,44.30
2019-03-29T05:43:58.234Z,45.00
2019-03-29T05:44:58.227Z,44.90
2019-03-29T05:45:58.210Z,44.40
2019-03-29T05:46:58.200Z,41.40
2019-03-29T05:47:58.195Z,44.30
2019-03-29T05:48:58.190Z,43.40
2019-03-29T05:49:58.172Z,43.00
2019-03-29T05:50:58.162Z,42.30
2019-03-29T05:51:58.146Z,44.20
2019-03-29T05:52:58.139Z,43.00
2019-03-29T05:53:58.129Z,42.00
2019-03-29T05:54:58.119Z,43.20
2019-03-29T05:55:58.114Z,40.40
2019-03-29T05:56:58.106Z,42.70
2019-03-29T05:57:58.099Z,41.30
2019-03-29T05:58:58.089Z,40.10
2019-03-29T05:59:58.077Z,40.50
2019-03-29T06:00:58.068Z,40.80
2019-03-29T06:01:58.064Z,41.50
2019-03-29T06:02:58.057Z,38.80
2019-03-29T06:03:58.043Z,37.00
2019-03-29T06:04:58.037Z,37.00
2019-03-29T06:05:58.026Z,36.20
2019-03-29T06:06:58.020Z,34.60
2019-03-29T06:07:58.017Z,35.40
2019-03-29T06:08:58.008Z,34.50
2019-03-29T06:09:58.002Z,32.40
2019-03-29T06:10:57.993Z,31.70
2019-03-29T06:11:57.982Z,30.30
2019-03-29T06:12:57.978Z,31.10
2019-03-29T06:13:57.972Z,29.10
2019-03-29T06:14:57.966Z,29.00
2019-03-29T06:15:57.963Z,28.80
2019-03-29T06:16:57.957Z,28.80
2019-03-29T06:17:57.948Z,27.20
2019-03-29T06:18:57.943Z,27.50
2019-03-29T06:19:57.940Z,27.70
2019-03-29T06:20:57.936Z,27.40
2019-03-29T06:21:57.930Z,27.40
2019-03-29T06:22:57.924Z,25.70
2019-03-29T06:23:57.914Z,26.20
2019-03-29T06:24:57.908Z,24.90
2019-03-29T06:25:57.906Z,25.20
2019-03-29T06:26:57.985Z,25.00
2019-03-29T06:27:57.902Z,25.90
2019-03-29T06:28:57.897Z,24.30
2019-03-29T06:29:57.896Z,25.30
2019-03-29T06:30:57.897Z,24.70
2019-03-29T06:31:57.885Z,22.30
2019-03-29T06:32:57.884Z,21.00
2019-03-29T06:33:57.883Z,24.70
2019-03-29T06:34:57.880Z,22.90
2019-03-29T06:35:57.873Z,23.70
2019-03-29T06:36:57.870Z,23.60
2019-03-29T06:37:57.867Z,25.00
2019-03-29T06:38:57.864Z,23.20
2019-03-29T06:39:57.866Z,23.60
2019-03-29T06:41:03.241Z,24.00
2019-03-29T06:41:57.866Z,24.30
2019-03-29T06:42:57.864Z,24.70
2019-03-29T06:43:57.861Z,23.40
2019-03-29T06:44:57.859Z,23.60
2019-03-29T06:45:57.856Z,24.50
2019-03-29T06:46:57.855Z,23.20
2019-03-29T06:47:57.858Z,23.40
2019-03-29T06:48:57.860Z,23.80
2019-03-29T06:49:57.853Z,23.50
2019-03-29T06:50:57.857Z,23.50
2019-03-29T06:51:57.857Z,22.00
2019-03-29T06:52:57.860Z,22.40
2019-03-29T06:53:57.865Z,21.90
2019-03-29T06:54:57.863Z,21.70
2019-03-29T06:55:59.475Z,21.40
2019-03-29T06:56:57.861Z,20.30
2019-03-29T06:57:57.865Z,20.80
2019-03-29T06:58:57.862Z,19.00
2019-03-29T06:59:57.868Z,17.80
2019-03-29T07:00:57.869Z,18.00
2019-03-29T07:01:57.873Z,17.80
2019-03-29T07:02:57.872Z,17.60
2019-03-29T07:03:57.868Z,17.50
2019-03-29T07:04:57.871Z,17.60
2019-03-29T07:05:57.879Z,15.90
2019-03-29T07:06:57.881Z,13.10
2019-03-29T07:07:57.879Z,14.00
2019-03-29T07:08:57.881Z,12.30
2019-03-29T07:09:57.888Z,12.50
2019-03-29T07:10:57.890Z,11.80
2019-03-29T07:11:57.898Z,9.80
2019-03-29T07:12:57.903Z,10.90
2019-03-29T07:13:58.262Z,10.40
2019-03-29T07:14:57.906Z,10.90
2019-03-29T07:15:57.909Z,9.80
2019-03-29T07:16:57.911Z,10.00
2019-03-29T07:17:57.911Z,9.70
2019-03-29T07:18:57.916Z,10.00
2019-03-29T07:19:57.923Z,10.40
2019-03-29T07:20:57.930Z,9.20
2019-03-29T07:21:57.928Z,9.60
2019-03-29T07:22:57.930Z,9.20
2019-03-29T07:23:57.941Z,9.50
2019-03-29T07:24:57.943Z,9.10
2019-03-29T07:25:57.951Z,9.40
2019-03-29T07:26:57.954Z,9.00
2019-03-29T07:27:57.953Z,9.30
2019-03-29T07:28:57.959Z,9.00
2019-03-29T07:29:57.963Z,8.80
2019-03-29T07:30:57.967Z,8.50
2019-03-29T07:31:57.975Z,8.30
2019-03-29T07:32:57.980Z,7.80
2019-03-29T07:33:57.983Z,8.30
2019-03-29T07:34:57.989Z,8.00
2019-03-29T07:35:57.990Z,8.00
2019-03-29T07:36:57.991Z,7.80
2019-03-29T07:37:58.000Z,8.20
2019-03-29T07:38:58.005Z,8.70
2019-03-29T07:39:58.004Z,7.90
2019-03-29T07:40:58.010Z,7.60
2019-03-29T07:41:58.021Z,6.90
2019-03-29T07:42:58.020Z,6.70
2019-03-29T07:43:58.031Z,6.70
2019-03-29T07:44:58.037Z,7.20
2019-03-29T07:45:58.038Z,7.20
2019-03-29T07:46:58.045Z,7.80
2019-03-29T07:47:58.044Z,7.30
2019-03-29T07:48:58.052Z,7.30
2019-03-29T07:49:58.060Z,7.50
2019-03-29T07:50:58.065Z,6.90
2019-03-29T07:51:58.077Z,7.30
2019-03-29T07:52:58.081Z,7.10
2019-03-29T07:53:58.085Z,7.40
2019-03-29T07:54:58.095Z,7.00
2019-03-29T07:55:58.107Z,7.30
2019-03-29T07:56:58.111Z,7.10
2019-03-29T07:57:58.115Z,7.50
2019-03-29T07:58:58.119Z,6.80
2019-03-29T07:59:58.122Z,7.70
2019-03-29T08:00:58.128Z,7.30
2019-03-29T08:01:58.138Z,7.20
2019-03-29T08:02:58.142Z,7.40
2019-03-29T08:03:58.156Z,7.50
2019-03-29T08:04:58.165Z,7.30
2019-03-29T08:05:58.171Z,7.70
2019-03-29T08:06:58.178Z,7.50
2019-03-29T08:07:58.182Z,6.90
2019-03-29T08:08:58.191Z,7.10
2019-03-29T08:09:58.203Z,7.60
2019-03-29T08:10:59.075Z,7.90
2019-03-29T08:11:58.214Z,7.70
2019-03-29T08:12:58.222Z,7.30
2019-03-29T08:13:58.227Z,8.00
2019-03-29T08:14:58.236Z,8.40
2019-03-29T08:15:58.247Z,7.80
2019-03-29T08:16:58.257Z,7.90
2019-03-29T08:18:01.363Z,7.40
2019-03-29T08:18:58.272Z,7.60
2019-03-29T08:20:35.986Z,7.50
2019-03-29T08:20:58.293Z,7.60
2019-03-29T08:21:58.300Z,7.50
2019-03-29T08:22:58.305Z,7.60
2019-03-29T08:23:58.318Z,6.70
2019-03-29T08:24:59.332Z,7.10
2019-03-29T08:25:58.335Z,6.80
2019-03-29T08:26:58.343Z,7.30
2019-03-29T08:27:58.355Z,7.40
2019-03-29T08:28:58.364Z,7.30
2019-03-29T08:29:58.369Z,7.70
2019-03-29T08:30:58.378Z,7.50
2019-03-29T08:31:58.381Z,7.30
2019-03-29T08:32:58.390Z,7.30
2019-03-29T08:33:58.401Z,7.00
2019-03-29T08:34:58.410Z,7.70
2019-03-29T08:35:58.422Z,7.70
2019-03-29T08:36:58.433Z,7.80
2019-03-29T08:37:58.444Z,7.00
2019-03-29T08:38:58.452Z,7.90
2019-03-29T08:39:58.462Z,7.80
2019-03-29T08:40:58.467Z,7.90
2019-03-29T08:42:00.323Z,8.00
2019-03-29T08:42:58.492Z,8.30
2019-03-29T08:43:58.496Z,7.80
2019-03-29T08:44:58.507Z,7.90
2019-03-29T08:45:58.515Z,7.90
2019-03-29T08:46:58.524Z,8.20
2019-03-29T08:47:58.538Z,7.60
2019-03-29T08:48:58.547Z,8.20
2019-03-29T08:49:58.556Z,8.60
2019-03-29T08:50:58.567Z,8.20
2019-03-29T08:51:58.581Z,8.00
2019-03-29T08:52:58.591Z,8.40
2019-03-29T08:53:58.603Z,8.10
2019-03-29T08:54:58.609Z,8.10
2019-03-29T08:55:58.620Z,8.90
2019-03-29T08:56:58.627Z,8.50
2019-03-29T08:57:58.643Z,7.90
2019-03-29T08:58:58.654Z,8.60
2019-03-29T08:59:58.661Z,8.80
2019-03-29T09:00:58.674Z,9.10
2019-03-29T09:01:58.686Z,9.50
2019-03-29T09:02:58.713Z,9.50
2019-03-29T09:04:05.008Z,9.20
2019-03-29T09:04:58.724Z,9.50
2019-03-29T09:05:58.737Z,9.70
2019-03-29T09:06:58.747Z,10.20
2019-03-29T09:07:58.758Z,9.60
2019-03-29T09:08:58.769Z,10.40
2019-03-29T09:09:58.776Z,9.60
2019-03-29T09:10:58.790Z,10.00
2019-03-29T09:11:58.804Z,9.60
2019-03-29T09:12:58.818Z,9.90
2019-03-29T09:13:58.826Z,10.30
2019-03-29T09:14:58.836Z,10.50
2019-03-29T09:15:58.856Z,10.20
2019-03-29T09:16:58.864Z,10.30
2019-03-29T09:18:00.005Z,10.60
2019-03-29T09:18:58.891Z,10.00
2019-03-29T09:19:58.899Z,9.40
2019-03-29T09:20:58.936Z,9.90
2019-03-29T09:21:58.925Z,10.90
2019-03-29T09:22:58.972Z,11.00
2019-03-29T09:23:58.954Z,10.90
2019-03-29T09:24:58.966Z,10.10
2019-03-29T09:25:58.979Z,10.60
2019-03-29T09:26:58.990Z,9.80
2019-03-29T09:27:58.999Z,10.00
2019-03-29T09:28:59.011Z,10.30
2019-03-29T09:29:59.029Z,9.70
2019-03-29T09:30:59.039Z,9.50
2019-03-29T09:31:59.054Z,9.90
2019-03-29T09:32:59.062Z,10.10
2019-03-29T09:33:59.167Z,10.70
2019-03-29T09:34:59.093Z,9.60
2019-03-29T09:35:59.105Z,9.90
2019-03-29T09:37:00.104Z,10.10
2019-03-29T09:37:59.131Z,9.90
2019-03-29T09:38:59.145Z,9.70
2019-03-29T09:39:59.154Z,9.50
2019-03-29T09:40:59.460Z,9.60
2019-03-29T09:41:59.178Z,9.10
2019-03-29T09:43:07.180Z,9.40
2019-03-29T09:43:59.209Z,9.80
2019-03-29T09:44:59.223Z,9.40
2019-03-29T09:45:59.233Z,9.40
2019-03-29T09:46:59.250Z,10.00
2019-03-29T09:47:59.264Z,8.70
2019-03-29T09:48:59.280Z,9.10
2019-03-29T09:49:59.298Z,8.90
2019-03-29T09:50:59.307Z,8.40
2019-03-29T09:51:59.325Z,8.10
2019-03-29T09:53:01.152Z,8.20
2019-03-29T09:53:59.372Z,8.20
2019-03-29T09:54:59.360Z,8.90
2019-03-29T09:55:59.379Z,9.40
2019-03-29T09:56:59.395Z,9.30
2019-03-29T09:57:59.416Z,8.50
2019-03-29T09:58:59.421Z,9.10
2019-03-29T09:59:59.432Z,9.40
2019-03-29T10:00:59.449Z,8.30
2019-03-29T10:01:59.465Z,7.60
2019-03-29T10:02:59.481Z,7.30
2019-03-29T10:03:59.494Z,7.40
2019-03-29T10:04:59.508Z,6.60
2019-03-29T10:05:59.518Z,6.70
2019-03-29T10:06:59.536Z,7.80
2019-03-29T10:07:59.548Z,6.60
2019-03-29T10:08:59.562Z,7.70
2019-03-29T10:09:59.578Z,8.10
2019-03-29T10:10:59.589Z,7.50
2019-03-29T10:11:59.603Z,7.10
2019-03-29T10:12:59.614Z,7.90
2019-03-29T10:13:59.630Z,7.60
2019-03-29T10:14:59.643Z,7.40
2019-03-29T10:15:59.663Z,7.80
2019-03-29T10:16:59.677Z,7.20
2019-03-29T10:17:59.686Z,7.20
2019-03-29T10:18:59.700Z,6.80
2019-03-29T10:19:59.722Z,6.90
2019-03-29T10:20:59.733Z,7.40
2019-03-29T10:21:59.743Z,7.50
2019-03-29T10:22:59.757Z,7.20
2019-03-29T10:23:59.770Z,7.30
2019-03-29T10:25:02.250Z,7.60
2019-03-29T10:25:59.795Z,8.20
2019-03-29T10:26:59.808Z,9.00
2019-03-29T10:27:59.831Z,8.90
2019-03-29T10:28:59.842Z,7.10
2019-03-29T10:29:59.857Z,6.50
2019-03-29T10:30:59.872Z,6.60
2019-03-29T10:32:00.073Z,7.20
2019-03-29T10:32:59.895Z,6.50
2019-03-29T10:33:59.917Z,7.00
2019-03-29T10:34:59.927Z,6.90
2019-03-29T10:35:59.939Z,6.30
2019-03-29T10:36:59.950Z,5.80
2019-03-29T10:37:59.962Z,5.00
2019-03-29T10:38:59.975Z,5.30
2019-03-29T10:39:59.997Z,4.40
2019-03-29T10:41:00.008Z,4.70
2019-03-29T10:42:00.020Z,5.60
2019-03-29T10:43:00.034Z,5.80
2019-03-29T10:44:00.042Z,4.80
2019-03-29T10:45:00.380Z,5.40
2019-03-29T10:46:00.074Z,5.50
2019-03-29T10:47:00.086Z,5.50
2019-03-29T10:48:00.108Z,5.60
2019-03-29T10:49:00.119Z,5.80
2019-03-29T10:50:00.345Z,6.30
2019-03-29T10:51:00.144Z,6.30
2019-03-29T10:52:00.161Z,7.50
2019-03-29T10:53:00.177Z,7.70
2019-03-29T10:54:00.188Z,8.90
2019-03-29T10:55:00.366Z,8.60
2019-03-29T10:56:00.310Z,6.00
2019-03-29T10:57:00.224Z,5.90
2019-03-29T10:58:00.241Z,6.50
2019-03-29T10:59:00.257Z,6.40
2019-03-29T11:00:00.408Z,6.50
2019-03-29T11:01:00.285Z,6.40
2019-03-29T11:02:00.300Z,6.80
2019-03-29T11:03:00.311Z,5.20
2019-03-29T11:04:00.317Z,5.60
2019-03-29T11:05:00.354Z,5.40
2019-03-29T11:06:00.351Z,5.70
2019-03-29T11:07:00.363Z,5.10
2019-03-29T11:08:00.372Z,5.50
2019-03-29T11:09:00.383Z,5.10
2019-03-29T11:10:00.477Z,4.30
2019-03-29T11:11:00.412Z,5.00
2019-03-29T11:12:00.429Z,4.70
2019-03-29T11:13:11.959Z,4.80
2019-03-29T11:14:00.455Z,4.80
2019-03-29T11:15:00.468Z,4.90
2019-03-29T11:16:00.485Z,4.70
2019-03-29T11:17:00.489Z,5.10
2019-03-29T11:18:00.498Z,4.70
2019-03-29T11:19:00.510Z,5.20
2019-03-29T11:20:00.528Z,5.40
2019-03-29T11:21:00.540Z,5.50
2019-03-29T11:22:00.553Z,5.40
2019-03-29T11:23:00.562Z,4.80
2019-03-29T11:24:00.575Z,4.80
2019-03-29T11:25:00.590Z,4.90
2019-03-29T11:26:00.608Z,5.10
2019-03-29T11:27:00.622Z,4.40
2019-03-29T11:28:00.624Z,5.10
2019-03-29T11:29:00.636Z,4.90
2019-03-29T11:30:00.649Z,5.10
2019-03-29T11:31:00.656Z,4.40
2019-03-29T11:32:00.672Z,4.40
2019-03-29T11:33:00.683Z,5.00
2019-03-29T11:34:00.693Z,4.80
2019-03-29T11:35:00.702Z,4.30
2019-03-29T11:36:00.707Z,4.40
2019-03-29T11:37:00.716Z,4.80
2019-03-29T11:38:00.730Z,4.70
2019-03-29T11:39:00.744Z,4.60
2019-03-29T11:40:00.743Z,4.90
2019-03-29T11:41:00.752Z,5.30
2019-03-29T11:42:03.519Z,5.20
2019-03-29T11:43:00.768Z,4.90
2019-03-29T11:44:00.779Z,5.20
2019-03-29T11:45:00.786Z,4.80
2019-03-29T11:46:00.793Z,5.60
2019-03-29T11:47:00.796Z,6.00
2019-03-29T11:48:08.259Z,6.00
2019-03-29T11:49:00.805Z,5.60
2019-03-29T11:50:00.809Z,5.90
2019-03-29T11:51:00.824Z,5.70
2019-03-29T11:52:00.819Z,5.90
2019-03-29T11:53:00.824Z,5.50
2019-03-29T11:54:00.823Z,6.00
2019-03-29T11:55:00.826Z,5.70
2019-03-29T11:56:00.837Z,5.60
2019-03-29T11:57:00.837Z,5.90
2019-03-29T11:58:00.841Z,5.80
2019-03-29T11:59:00.846Z,6.10
2019-03-29T12:00:00.843Z,6.10
2019-03-29T12:01:00.845Z,5.60
2019-03-29T12:02:00.849Z,6.30
2019-03-29T12:03:00.846Z,5.90
2019-03-29T12:04:00.852Z,6.10
2019-03-29T12:05:00.854Z,6.20
2019-03-29T12:06:00.858Z,6.10
2019-03-29T12:07:03.598Z,5.60
2019-03-29T12:08:00.855Z,5.20
2019-03-29T12:09:00.858Z,5.50
2019-03-29T12:10:00.864Z,6.00
2019-03-29T12:11:00.863Z,6.00
2019-03-29T12:12:00.866Z,6.00
2019-03-29T12:13:00.862Z,5.90
2019-03-29T12:14:00.865Z,5.90
2019-03-29T12:15:00.861Z,6.10
2019-03-29T12:16:00.865Z,5.60
2019-03-29T12:17:00.868Z,5.90
2019-03-29T12:18:00.867Z,5.80
2019-03-29T12:19:00.866Z,5.70
2019-03-29T12:20:00.864Z,5.20
2019-03-29T12:21:00.865Z,6.00
2019-03-29T12:22:00.869Z,5.50
2019-03-29T12:23:00.873Z,5.60
2019-03-29T12:24:00.879Z,6.20
2019-03-29T12:25:00.876Z,5.90
2019-03-29T12:26:00.870Z,6.50
2019-03-29T12:27:00.872Z,6.20
2019-03-29T12:28:00.875Z,6.80
2019-03-29T12:29:00.878Z,6.80
2019-03-29T12:30:00.875Z,6.50
2019-03-29T12:31:00.877Z,6.60
2019-03-29T12:32:00.872Z,5.70
2019-03-29T12:33:00.873Z,6.00
2019-03-29T12:34:00.871Z,6.20
2019-03-29T12:35:00.873Z,5.20
2019-03-29T12:36:00.877Z,4.80
2019-03-29T12:37:00.879Z,6.10
2019-03-29T12:38:00.880Z,5.10
2019-03-29T12:39:00.879Z,4.90
2019-03-29T12:40:00.876Z,4.90
2019-03-29T12:41:00.878Z,5.50
2019-03-29T12:42:00.879Z,5.50
2019-03-29T12:43:00.880Z,5.00
2019-03-29T12:44:00.876Z,5.70
2019-03-29T12:45:00.876Z,5.50
2019-03-29T12:46:00.882Z,6.00
2019-03-29T12:47:00.873Z,5.40
2019-03-29T12:48:00.877Z,4.70
2019-03-29T12:49:00.879Z,5.30
2019-03-29T12:50:00.897Z,5.40
2019-03-29T12:51:00.875Z,6.20
2019-03-29T12:52:00.872Z,5.60
2019-03-29T12:53:00.875Z,5.80
2019-03-29T12:54:00.873Z,5.20
2019-03-29T12:55:00.874Z,5.30
2019-03-29T12:56:00.876Z,6.00
2019-03-29T12:57:00.877Z,5.90
2019-03-29T12:58:00.872Z,5.50
2019-03-29T12:59:00.871Z,5.60
2019-03-29T13:00:00.882Z,5.70
2019-03-29T13:01:00.874Z,4.90
2019-03-29T13:02:00.871Z,5.50
2019-03-29T13:03:00.870Z,5.40